sensor_id;sensor_type;location;lat;lon;timestamp;P1;durP1;ratioP1;P2;durP2;ratioP2
23080;SDS011;72373;50.562;8.498;2024-03-17T00:02:19;9.30;;;5.20;;
23080;SDS011;72373;50.562;8.498;2024-03-17T00:04:45;9.52;;;6.15;;
23080;SDS011;72373;50.562;8.498;2024-03-17T00:07:11;9.48;;;5.75;;
23080;SDS011;72373;50.562;8.498;2024-03-17T00:09:37;12.75;;;7.35;;
23080;SDS011;72373;50.562;8.498;2024-03-17T00:12:03;11.02;;;7.53;;
23080;SDS011;72373;50.562;8.498;2024-03-17T00:14:29;9.15;;;6.45;;
23080;SDS011;72373;50.562;8.498;2024-03-17T00:16:55;9.93;;;7.07;;
23080;SDS011;72373;50.562;8.498;2024-03-17T00:19:20;10.75;;;6.43;;
23080;SDS011;72373;50.562;8.498;2024-03-17T00:21:49;9.73;;;6.85;;
23080;SDS011;72373;50.562;8.498;2024-03-17T00:24:18;11.10;;;7.20;;
23080;SDS011;72373;50.562;8.498;2024-03-17T00:26:44;11.48;;;7.50;;
23080;SDS011;72373;50.562;8.498;2024-03-17T00:29:14;12.02;;;7.68;;
23080;SDS011;72373;50.562;8.498;2024-03-17T00:31:40;12.30;;;8.50;;
23080;SDS011;72373;50.562;8.498;2024-03-17T00:34:06;10.30;;;6.47;;
23080;SDS011;72373;50.562;8.498;2024-03-17T00:36:31;11.50;;;7.63;;
23080;SDS011;72373;50.562;8.498;2024-03-17T00:38:57;12.32;;;8.65;;
23080;SDS011;72373;50.562;8.498;2024-03-17T00:41:23;13.25;;;8.30;;
23080;SDS011;72373;50.562;8.498;2024-03-17T00:43:49;9.02;;;6.57;;
23080;SDS011;72373;50.562;8.498;2024-03-17T00:46:16;11.18;;;6.85;;
23080;SDS011;72373;50.562;8.498;2024-03-17T00:48:42;8.65;;;6.32;;
23080;SDS011;72373;50.562;8.498;2024-03-17T00:51:08;8.02;;;5.80;;
23080;SDS011;72373;50.562;8.498;2024-03-17T00:53:35;9.85;;;6.20;;
23080;SDS011;72373;50.562;8.498;2024-03-17T00:56:00;8.23;;;7.00;;
23080;SDS011;72373;50.562;8.498;2024-03-17T00:58:26;9.75;;;6.00;;
23080;SDS011;72373;50.562;8.498;2024-03-17T01:00:53;10.40;;;6.10;;
23080;SDS011;72373;50.562;8.498;2024-03-17T01:03:19;9.50;;;6.47;;
23080;SDS011;72373;50.562;8.498;2024-03-17T01:05:45;11.98;;;6.28;;
23080;SDS011;72373;50.562;8.498;2024-03-17T01:08:12;13.68;;;7.22;;
23080;SDS011;72373;50.562;8.498;2024-03-17T01:10:39;9.43;;;6.60;;
23080;SDS011;72373;50.562;8.498;2024-03-17T01:13:06;10.13;;;5.90;;
23080;SDS011;72373;50.562;8.498;2024-03-17T01:15:33;14.20;;;6.43;;
23080;SDS011;72373;50.562;8.498;2024-03-17T01:17:59;8.43;;;5.78;;
23080;SDS011;72373;50.562;8.498;2024-03-17T01:20:25;8.35;;;5.90;;
23080;SDS011;72373;50.562;8.498;2024-03-17T01:22:51;10.82;;;6.30;;
23080;SDS011;72373;50.562;8.498;2024-03-17T01:25:17;9.95;;;6.15;;
23080;SDS011;72373;50.562;8.498;2024-03-17T01:27:43;8.88;;;6.13;;
23080;SDS011;72373;50.562;8.498;2024-03-17T01:30:09;12.27;;;7.50;;
23080;SDS011;72373;50.562;8.498;2024-03-17T01:32:36;13.18;;;6.88;;
23080;SDS011;72373;50.562;8.498;2024-03-17T01:35:01;8.73;;;5.82;;
23080;SDS011;72373;50.562;8.498;2024-03-17T01:37:27;8.50;;;6.40;;
23080;SDS011;72373;50.562;8.498;2024-03-17T01:39:56;11.55;;;6.68;;
23080;SDS011;72373;50.562;8.498;2024-03-17T01:42:25;11.52;;;6.43;;
23080;SDS011;72373;50.562;8.498;2024-03-17T01:44:50;11.50;;;7.57;;
23080;SDS011;72373;50.562;8.498;2024-03-17T01:47:19;8.77;;;6.43;;
23080;SDS011;72373;50.562;8.498;2024-03-17T01:49:45;12.63;;;6.32;;
23080;SDS011;72373;50.562;8.498;2024-03-17T01:52:12;9.38;;;6.10;;
23080;SDS011;72373;50.562;8.498;2024-03-17T01:54:39;10.55;;;6.10;;
23080;SDS011;72373;50.562;8.498;2024-03-17T01:57:05;8.57;;;5.55;;
23080;SDS011;72373;50.562;8.498;2024-03-17T01:59:31;9.65;;;5.93;;
23080;SDS011;72373;50.562;8.498;2024-03-17T02:01:56;12.82;;;7.20;;
23080;SDS011;72373;50.562;8.498;2024-03-17T02:04:22;11.85;;;6.47;;
23080;SDS011;72373;50.562;8.498;2024-03-17T02:06:47;14.25;;;6.85;;
23080;SDS011;72373;50.562;8.498;2024-03-17T02:09:13;11.40;;;6.45;;
23080;SDS011;72373;50.562;8.498;2024-03-17T02:11:38;12.60;;;6.88;;
23080;SDS011;72373;50.562;8.498;2024-03-17T02:14:04;13.27;;;7.53;;
23080;SDS011;72373;50.562;8.498;2024-03-17T02:16:32;11.25;;;7.25;;
23080;SDS011;72373;50.562;8.498;2024-03-17T02:18:58;12.40;;;6.93;;
23080;SDS011;72373;50.562;8.498;2024-03-17T02:21:25;11.35;;;6.40;;
23080;SDS011;72373;50.562;8.498;2024-03-17T02:23:54;11.00;;;6.22;;
23080;SDS011;72373;50.562;8.498;2024-03-17T02:26:21;10.60;;;6.45;;
23080;SDS011;72373;50.562;8.498;2024-03-17T02:28:47;13.48;;;6.97;;
23080;SDS011;72373;50.562;8.498;2024-03-17T02:31:14;13.48;;;7.53;;
23080;SDS011;72373;50.562;8.498;2024-03-17T02:33:40;11.40;;;6.68;;
23080;SDS011;72373;50.562;8.498;2024-03-17T02:36:06;14.43;;;6.38;;
23080;SDS011;72373;50.562;8.498;2024-03-17T02:38:35;11.52;;;5.97;;
23080;SDS011;72373;50.562;8.498;2024-03-17T02:41:20;8.18;;;5.80;;
23080;SDS011;72373;50.562;8.498;2024-03-17T02:43:46;10.00;;;5.97;;
23080;SDS011;72373;50.562;8.498;2024-03-17T02:46:12;8.98;;;6.32;;
23080;SDS011;72373;50.562;8.498;2024-03-17T02:48:39;7.97;;;5.32;;
23080;SDS011;72373;50.562;8.498;2024-03-17T02:51:11;10.75;;;5.60;;
23080;SDS011;72373;50.562;8.498;2024-03-17T02:53:39;10.55;;;5.82;;
23080;SDS011;72373;50.562;8.498;2024-03-17T02:56:12;8.73;;;5.70;;
23080;SDS011;72373;50.562;8.498;2024-03-17T02:58:38;10.30;;;6.35;;
23080;SDS011;72373;50.562;8.498;2024-03-17T03:01:04;12.00;;;6.93;;
23080;SDS011;72373;50.562;8.498;2024-03-17T03:03:31;10.82;;;6.53;;
23080;SDS011;72373;50.562;8.498;2024-03-17T03:05:57;8.70;;;6.15;;
23080;SDS011;72373;50.562;8.498;2024-03-17T03:08:24;11.45;;;6.07;;
23080;SDS011;72373;50.562;8.498;2024-03-17T03:10:49;10.07;;;6.10;;
23080;SDS011;72373;50.562;8.498;2024-03-17T03:13:16;11.82;;;6.78;;
23080;SDS011;72373;50.562;8.498;2024-03-17T03:15:41;13.20;;;8.00;;
23080;SDS011;72373;50.562;8.498;2024-03-17T03:18:07;15.05;;;8.93;;
23080;SDS011;72373;50.562;8.498;2024-03-17T03:20:33;17.13;;;10.30;;
23080;SDS011;72373;50.562;8.498;2024-03-17T03:22:59;27.00;;;17.98;;
23080;SDS011;72373;50.562;8.498;2024-03-17T03:25:25;38.50;;;25.58;;
23080;SDS011;72373;50.562;8.498;2024-03-17T03:27:51;38.75;;;25.73;;
23080;SDS011;72373;50.562;8.498;2024-03-17T03:30:18;17.73;;;12.35;;
23080;SDS011;72373;50.562;8.498;2024-03-17T03:32:46;13.60;;;8.45;;
23080;SDS011;72373;50.562;8.498;2024-03-17T03:35:12;12.13;;;7.55;;
23080;SDS011;72373;50.562;8.498;2024-03-17T03:37:39;14.30;;;7.60;;
23080;SDS011;72373;50.562;8.498;2024-03-17T03:40:04;9.18;;;5.18;;
23080;SDS011;72373;50.562;8.498;2024-03-17T03:42:43;8.40;;;5.15;;
23080;SDS011;72373;50.562;8.498;2024-03-17T03:45:09;9.52;;;5.15;;
23080;SDS011;72373;50.562;8.498;2024-03-17T03:47:41;9.25;;;5.45;;
23080;SDS011;72373;50.562;8.498;2024-03-17T03:50:08;11.80;;;6.03;;
23080;SDS011;72373;50.562;8.498;2024-03-17T03:52:36;9.25;;;5.85;;
23080;SDS011;72373;50.562;8.498;2024-03-17T03:55:03;10.88;;;6.20;;
23080;SDS011;72373;50.562;8.498;2024-03-17T03:57:29;8.93;;;5.72;;
23080;SDS011;72373;50.562;8.498;2024-03-17T03:59:57;10.57;;;5.50;;
23080;SDS011;72373;50.562;8.498;2024-03-17T04:02:22;9.98;;;5.50;;
23080;SDS011;72373;50.562;8.498;2024-03-17T04:04:48;7.78;;;5.60;;
23080;SDS011;72373;50.562;8.498;2024-03-17T04:07:13;8.18;;;5.20;;
23080;SDS011;72373;50.562;8.498;2024-03-17T04:09:39;8.73;;;4.78;;
23080;SDS011;72373;50.562;8.498;2024-03-17T04:12:05;7.93;;;5.13;;
23080;SDS011;72373;50.562;8.498;2024-03-17T04:14:30;7.68;;;4.78;;
23080;SDS011;72373;50.562;8.498;2024-03-17T04:16:56;11.15;;;6.05;;
23080;SDS011;72373;50.562;8.498;2024-03-17T04:19:28;11.07;;;6.75;;
23080;SDS011;72373;50.562;8.498;2024-03-17T04:21:54;14.52;;;9.55;;
23080;SDS011;72373;50.562;8.498;2024-03-17T04:24:20;18.85;;;12.13;;
23080;SDS011;72373;50.562;8.498;2024-03-17T04:26:45;16.30;;;11.32;;
23080;SDS011;72373;50.562;8.498;2024-03-17T04:29:11;15.93;;;10.32;;
23080;SDS011;72373;50.562;8.498;2024-03-17T04:31:37;16.63;;;10.55;;
23080;SDS011;72373;50.562;8.498;2024-03-17T04:34:02;16.83;;;11.25;;
23080;SDS011;72373;50.562;8.498;2024-03-17T04:36:28;13.65;;;8.52;;
23080;SDS011;72373;50.562;8.498;2024-03-17T04:38:53;14.20;;;8.88;;
23080;SDS011;72373;50.562;8.498;2024-03-17T04:41:19;16.10;;;9.05;;
23080;SDS011;72373;50.562;8.498;2024-03-17T04:43:45;13.45;;;7.72;;
23080;SDS011;72373;50.562;8.498;2024-03-17T04:46:11;15.82;;;8.88;;
23080;SDS011;72373;50.562;8.498;2024-03-17T04:48:38;16.73;;;9.25;;
23080;SDS011;72373;50.562;8.498;2024-03-17T04:51:04;15.70;;;8.32;;
23080;SDS011;72373;50.562;8.498;2024-03-17T04:53:30;15.50;;;8.35;;
23080;SDS011;72373;50.562;8.498;2024-03-17T04:56:00;14.15;;;7.80;;
23080;SDS011;72373;50.562;8.498;2024-03-17T04:58:26;13.32;;;7.75;;
23080;SDS011;72373;50.562;8.498;2024-03-17T05:00:52;13.23;;;7.07;;
23080;SDS011;72373;50.562;8.498;2024-03-17T05:03:17;14.85;;;7.30;;
23080;SDS011;72373;50.562;8.498;2024-03-17T05:05:43;13.95;;;7.00;;
23080;SDS011;72373;50.562;8.498;2024-03-17T05:08:08;13.35;;;7.20;;
23080;SDS011;72373;50.562;8.498;2024-03-17T05:10:34;11.48;;;7.47;;
23080;SDS011;72373;50.562;8.498;2024-03-17T05:12:59;18.48;;;12.05;;
23080;SDS011;72373;50.562;8.498;2024-03-17T05:15:24;35.03;;;23.58;;
23080;SDS011;72373;50.562;8.498;2024-03-17T05:17:50;27.75;;;18.70;;
23080;SDS011;72373;50.562;8.498;2024-03-17T05:20:16;23.42;;;15.50;;
23080;SDS011;72373;50.562;8.498;2024-03-17T05:22:41;27.33;;;12.88;;
23080;SDS011;72373;50.562;8.498;2024-03-17T05:25:07;14.15;;;9.18;;
23080;SDS011;72373;50.562;8.498;2024-03-17T05:27:33;14.90;;;9.18;;
23080;SDS011;72373;50.562;8.498;2024-03-17T05:29:58;19.92;;;9.13;;
23080;SDS011;72373;50.562;8.498;2024-03-17T05:32:24;18.92;;;10.82;;
23080;SDS011;72373;50.562;8.498;2024-03-17T05:34:51;19.20;;;9.38;;
23080;SDS011;72373;50.562;8.498;2024-03-17T05:37:17;16.13;;;9.25;;
23080;SDS011;72373;50.562;8.498;2024-03-17T05:39:42;13.57;;;7.68;;
23080;SDS011;72373;50.562;8.498;2024-03-17T05:42:07;16.05;;;8.07;;
23080;SDS011;72373;50.562;8.498;2024-03-17T05:44:33;15.23;;;8.38;;
23080;SDS011;72373;50.562;8.498;2024-03-17T05:47:14;14.90;;;7.78;;
23080;SDS011;72373;50.562;8.498;2024-03-17T05:49:41;11.57;;;7.45;;
23080;SDS011;72373;50.562;8.498;2024-03-17T05:52:07;13.13;;;7.10;;
23080;SDS011;72373;50.562;8.498;2024-03-17T05:54:33;13.98;;;7.72;;
23080;SDS011;72373;50.562;8.498;2024-03-17T05:56:59;17.40;;;8.45;;
23080;SDS011;72373;50.562;8.498;2024-03-17T05:59:24;14.02;;;7.47;;
23080;SDS011;72373;50.562;8.498;2024-03-17T06:01:50;18.98;;;8.30;;
23080;SDS011;72373;50.562;8.498;2024-03-17T06:04:15;16.23;;;7.78;;
23080;SDS011;72373;50.562;8.498;2024-03-17T06:06:42;13.55;;;7.57;;
23080;SDS011;72373;50.562;8.498;2024-03-17T06:09:07;14.73;;;8.27;;
23080;SDS011;72373;50.562;8.498;2024-03-17T06:11:35;16.27;;;6.88;;
23080;SDS011;72373;50.562;8.498;2024-03-17T06:14:01;13.15;;;7.10;;
23080;SDS011;72373;50.562;8.498;2024-03-17T06:16:29;13.43;;;7.18;;
23080;SDS011;72373;50.562;8.498;2024-03-17T06:18:55;12.00;;;7.03;;
23080;SDS011;72373;50.562;8.498;2024-03-17T06:21:21;12.27;;;6.60;;
23080;SDS011;72373;50.562;8.498;2024-03-17T06:23:47;9.63;;;6.07;;
23080;SDS011;72373;50.562;8.498;2024-03-17T06:26:13;14.43;;;6.03;;
23080;SDS011;72373;50.562;8.498;2024-03-17T06:28:38;10.20;;;6.45;;
23080;SDS011;72373;50.562;8.498;2024-03-17T06:31:04;13.15;;;6.45;;
23080;SDS011;72373;50.562;8.498;2024-03-17T06:33:32;10.57;;;5.70;;
23080;SDS011;72373;50.562;8.498;2024-03-17T06:35:58;10.50;;;6.85;;
23080;SDS011;72373;50.562;8.498;2024-03-17T06:38:26;11.60;;;6.18;;
23080;SDS011;72373;50.562;8.498;2024-03-17T06:40:52;9.80;;;6.75;;
23080;SDS011;72373;50.562;8.498;2024-03-17T06:43:18;10.07;;;6.30;;
23080;SDS011;72373;50.562;8.498;2024-03-17T06:45:52;13.07;;;6.80;;
23080;SDS011;72373;50.562;8.498;2024-03-17T06:48:22;11.50;;;6.43;;
23080;SDS011;72373;50.562;8.498;2024-03-17T06:50:48;12.20;;;6.40;;
23080;SDS011;72373;50.562;8.498;2024-03-17T06:53:16;11.75;;;6.90;;
23080;SDS011;72373;50.562;8.498;2024-03-17T06:55:42;10.45;;;6.20;;
23080;SDS011;72373;50.562;8.498;2024-03-17T06:58:08;13.05;;;6.90;;
23080;SDS011;72373;50.562;8.498;2024-03-17T07:00:33;10.68;;;6.68;;
23080;SDS011;72373;50.562;8.498;2024-03-17T07:02:59;9.73;;;6.47;;
23080;SDS011;72373;50.562;8.498;2024-03-17T07:05:24;9.98;;;6.38;;
23080;SDS011;72373;50.562;8.498;2024-03-17T07:07:50;11.27;;;7.15;;
23080;SDS011;72373;50.562;8.498;2024-03-17T07:10:16;13.20;;;6.50;;
23080;SDS011;72373;50.562;8.498;2024-03-17T07:12:42;12.63;;;7.38;;
23080;SDS011;72373;50.562;8.498;2024-03-17T07:15:08;14.63;;;7.18;;
23080;SDS011;72373;50.562;8.498;2024-03-17T07:17:34;14.00;;;7.45;;
23080;SDS011;72373;50.562;8.498;2024-03-17T07:19:59;13.32;;;8.18;;
23080;SDS011;72373;50.562;8.498;2024-03-17T07:22:25;13.00;;;6.68;;
23080;SDS011;72373;50.562;8.498;2024-03-17T07:24:51;10.77;;;5.90;;
23080;SDS011;72373;50.562;8.498;2024-03-17T07:27:21;11.55;;;7.30;;
23080;SDS011;72373;50.562;8.498;2024-03-17T07:29:47;13.75;;;7.38;;
23080;SDS011;72373;50.562;8.498;2024-03-17T07:32:12;10.73;;;7.10;;
23080;SDS011;72373;50.562;8.498;2024-03-17T07:34:38;11.27;;;6.78;;
23080;SDS011;72373;50.562;8.498;2024-03-17T07:37:04;10.20;;;7.20;;
23080;SDS011;72373;50.562;8.498;2024-03-17T07:39:30;10.65;;;6.68;;
23080;SDS011;72373;50.562;8.498;2024-03-17T07:41:57;9.20;;;6.18;;
23080;SDS011;72373;50.562;8.498;2024-03-17T07:44:24;10.45;;;7.18;;
23080;SDS011;72373;50.562;8.498;2024-03-17T07:46:50;15.80;;;7.38;;
23080;SDS011;72373;50.562;8.498;2024-03-17T07:49:15;12.52;;;7.03;;
23080;SDS011;72373;50.562;8.498;2024-03-17T07:51:41;13.77;;;7.97;;
23080;SDS011;72373;50.562;8.498;2024-03-17T07:54:08;12.15;;;7.15;;
23080;SDS011;72373;50.562;8.498;2024-03-17T07:56:34;13.70;;;7.45;;
23080;SDS011;72373;50.562;8.498;2024-03-17T07:58:59;11.40;;;7.70;;
23080;SDS011;72373;50.562;8.498;2024-03-17T08:01:25;11.57;;;7.93;;
23080;SDS011;72373;50.562;8.498;2024-03-17T08:03:51;12.73;;;8.35;;
23080;SDS011;72373;50.562;8.498;2024-03-17T08:06:20;10.05;;;7.07;;
23080;SDS011;72373;50.562;8.498;2024-03-17T08:08:46;10.30;;;6.63;;
23080;SDS011;72373;50.562;8.498;2024-03-17T08:11:12;12.50;;;7.25;;
23080;SDS011;72373;50.562;8.498;2024-03-17T08:13:38;8.23;;;6.43;;
23080;SDS011;72373;50.562;8.498;2024-03-17T08:16:04;12.77;;;7.57;;
23080;SDS011;72373;50.562;8.498;2024-03-17T08:18:32;13.07;;;7.65;;
23080;SDS011;72373;50.562;8.498;2024-03-17T08:20:59;12.48;;;7.40;;
23080;SDS011;72373;50.562;8.498;2024-03-17T08:23:26;12.55;;;7.30;;
23080;SDS011;72373;50.562;8.498;2024-03-17T08:26:00;12.82;;;7.82;;
23080;SDS011;72373;50.562;8.498;2024-03-17T08:28:26;14.88;;;8.23;;
23080;SDS011;72373;50.562;8.498;2024-03-17T08:30:56;12.82;;;7.60;;
23080;SDS011;72373;50.562;8.498;2024-03-17T08:33:23;9.93;;;7.05;;
23080;SDS011;72373;50.562;8.498;2024-03-17T08:35:55;10.77;;;6.80;;
23080;SDS011;72373;50.562;8.498;2024-03-17T08:38:21;11.43;;;7.38;;
23080;SDS011;72373;50.562;8.498;2024-03-17T08:40:48;10.73;;;7.38;;
23080;SDS011;72373;50.562;8.498;2024-03-17T08:43:15;9.60;;;7.10;;
23080;SDS011;72373;50.562;8.498;2024-03-17T08:45:40;10.48;;;6.75;;
23080;SDS011;72373;50.562;8.498;2024-03-17T08:48:06;12.50;;;8.25;;
23080;SDS011;72373;50.562;8.498;2024-03-17T08:50:31;12.63;;;7.68;;
23080;SDS011;72373;50.562;8.498;2024-03-17T08:52:59;11.35;;;7.63;;
23080;SDS011;72373;50.562;8.498;2024-03-17T08:55:24;10.00;;;7.20;;
23080;SDS011;72373;50.562;8.498;2024-03-17T08:57:50;10.75;;;7.30;;
23080;SDS011;72373;50.562;8.498;2024-03-17T09:00:15;9.18;;;7.00;;
23080;SDS011;72373;50.562;8.498;2024-03-17T09:02:41;9.15;;;6.93;;
23080;SDS011;72373;50.562;8.498;2024-03-17T09:05:07;11.02;;;6.72;;
23080;SDS011;72373;50.562;8.498;2024-03-17T09:07:32;13.05;;;7.13;;
23080;SDS011;72373;50.562;8.498;2024-03-17T09:09:58;8.82;;;6.88;;
23080;SDS011;72373;50.562;8.498;2024-03-17T09:12:24;10.95;;;7.00;;
23080;SDS011;72373;50.562;8.498;2024-03-17T09:14:50;11.82;;;6.95;;
23080;SDS011;72373;50.562;8.498;2024-03-17T09:17:16;13.57;;;7.38;;
23080;SDS011;72373;50.562;8.498;2024-03-17T09:19:44;8.85;;;6.32;;
23080;SDS011;72373;50.562;8.498;2024-03-17T09:22:10;10.85;;;6.80;;
23080;SDS011;72373;50.562;8.498;2024-03-17T09:24:35;9.95;;;6.28;;
23080;SDS011;72373;50.562;8.498;2024-03-17T09:27:01;11.15;;;6.75;;
23080;SDS011;72373;50.562;8.498;2024-03-17T09:29:26;8.35;;;5.70;;
23080;SDS011;72373;50.562;8.498;2024-03-17T09:31:52;11.15;;;5.93;;
23080;SDS011;72373;50.562;8.498;2024-03-17T09:34:17;9.75;;;5.70;;
23080;SDS011;72373;50.562;8.498;2024-03-17T09:36:43;7.47;;;5.78;;
23080;SDS011;72373;50.562;8.498;2024-03-17T09:39:09;8.52;;;6.30;;
23080;SDS011;72373;50.562;8.498;2024-03-17T09:41:36;10.52;;;6.15;;
23080;SDS011;72373;50.562;8.498;2024-03-17T09:44:03;7.00;;;5.80;;
23080;SDS011;72373;50.562;8.498;2024-03-17T09:46:31;6.28;;;5.13;;
23080;SDS011;72373;50.562;8.498;2024-03-17T09:48:58;8.63;;;5.88;;
23080;SDS011;72373;50.562;8.498;2024-03-17T09:51:25;7.22;;;5.00;;
23080;SDS011;72373;50.562;8.498;2024-03-17T09:53:51;7.43;;;4.57;;
23080;SDS011;72373;50.562;8.498;2024-03-17T09:56:18;6.95;;;4.80;;
23080;SDS011;72373;50.562;8.498;2024-03-17T09:58:48;6.40;;;4.53;;
23080;SDS011;72373;50.562;8.498;2024-03-17T10:01:15;7.75;;;5.15;;
23080;SDS011;72373;50.562;8.498;2024-03-17T10:03:42;7.05;;;5.28;;
23080;SDS011;72373;50.562;8.498;2024-03-17T10:06:09;6.57;;;4.85;;
23080;SDS011;72373;50.562;8.498;2024-03-17T10:11:13;5.72;;;4.55;;
23080;SDS011;72373;50.562;8.498;2024-03-17T10:13:41;7.35;;;4.00;;
23080;SDS011;72373;50.562;8.498;2024-03-17T10:16:16;4.50;;;3.60;;
23080;SDS011;72373;50.562;8.498;2024-03-17T10:18:46;4.25;;;3.75;;
23080;SDS011;72373;50.562;8.498;2024-03-17T10:21:25;6.93;;;3.65;;
23080;SDS011;72373;50.562;8.498;2024-03-17T10:26:54;7.50;;;4.07;;
23080;SDS011;72373;50.562;8.498;2024-03-17T10:29:27;5.30;;;3.67;;
23080;SDS011;72373;50.562;8.498;2024-03-17T10:32:00;4.57;;;3.53;;
23080;SDS011;72373;50.562;8.498;2024-03-17T10:34:28;6.15;;;4.15;;
23080;SDS011;72373;50.562;8.498;2024-03-17T10:37:08;4.80;;;3.80;;
23080;SDS011;72373;50.562;8.498;2024-03-17T10:39:37;3.78;;;3.35;;
23080;SDS011;72373;50.562;8.498;2024-03-17T10:42:05;4.40;;;3.33;;
23080;SDS011;72373;50.562;8.498;2024-03-17T10:44:32;5.75;;;3.65;;
23080;SDS011;72373;50.562;8.498;2024-03-17T10:47:00;6.47;;;3.65;;
23080;SDS011;72373;50.562;8.498;2024-03-17T10:49:30;4.28;;;3.17;;
23080;SDS011;72373;50.562;8.498;2024-03-17T10:52:15;5.75;;;3.35;;
23080;SDS011;72373;50.562;8.498;2024-03-17T10:54:47;4.10;;;3.03;;
23080;SDS011;72373;50.562;8.498;2024-03-17T11:00:01;4.35;;;3.22;;
23080;SDS011;72373;50.562;8.498;2024-03-17T11:02:33;4.38;;;3.15;;
23080;SDS011;72373;50.562;8.498;2024-03-17T11:07:45;5.40;;;3.10;;
23080;SDS011;72373;50.562;8.498;2024-03-17T11:10:14;4.18;;;3.17;;
23080;SDS011;72373;50.562;8.498;2024-03-17T11:20:36;5.57;;;3.42;;
23080;SDS011;72373;50.562;8.498;2024-03-17T11:23:02;5.50;;;3.53;;
23080;SDS011;72373;50.562;8.498;2024-03-17T11:44:24;5.25;;;3.42;;
23080;SDS011;72373;50.562;8.498;2024-03-17T11:46:57;4.05;;;3.22;;
23080;SDS011;72373;50.562;8.498;2024-03-17T11:49:27;6.40;;;3.83;;
23080;SDS011;72373;50.562;8.498;2024-03-17T11:51:59;6.95;;;4.00;;
23080;SDS011;72373;50.562;8.498;2024-03-17T11:54:34;5.95;;;3.45;;
23080;SDS011;72373;50.562;8.498;2024-03-17T11:57:04;4.72;;;3.35;;
23080;SDS011;72373;50.562;8.498;2024-03-17T11:59:31;4.00;;;3.00;;
23080;SDS011;72373;50.562;8.498;2024-03-17T12:01:58;6.93;;;3.25;;
23080;SDS011;72373;50.562;8.498;2024-03-17T12:04:24;4.90;;;3.08;;
23080;SDS011;72373;50.562;8.498;2024-03-17T12:06:51;4.60;;;3.70;;
23080;SDS011;72373;50.562;8.498;2024-03-17T12:09:27;3.63;;;3.15;;
23080;SDS011;72373;50.562;8.498;2024-03-17T12:12:01;6.97;;;3.63;;
23080;SDS011;72373;50.562;8.498;2024-03-17T12:14:35;3.63;;;2.95;;
23080;SDS011;72373;50.562;8.498;2024-03-17T12:17:05;5.82;;;3.30;;
23080;SDS011;72373;50.562;8.498;2024-03-17T12:19:36;5.50;;;3.08;;
23080;SDS011;72373;50.562;8.498;2024-03-17T12:22:03;5.18;;;3.63;;
23080;SDS011;72373;50.562;8.498;2024-03-17T12:24:33;4.93;;;2.88;;
23080;SDS011;72373;50.562;8.498;2024-03-17T12:27:00;4.85;;;3.40;;
23080;SDS011;72373;50.562;8.498;2024-03-17T12:32:24;3.80;;;3.25;;
23080;SDS011;72373;50.562;8.498;2024-03-17T12:34:54;4.93;;;3.38;;
23080;SDS011;72373;50.562;8.498;2024-03-17T12:37:22;4.32;;;3.60;;
23080;SDS011;72373;50.562;8.498;2024-03-17T12:39:53;4.65;;;3.70;;
23080;SDS011;72373;50.562;8.498;2024-03-17T12:42:28;7.28;;;3.63;;
23080;SDS011;72373;50.562;8.498;2024-03-17T12:44:55;5.70;;;3.78;;
23080;SDS011;72373;50.562;8.498;2024-03-17T12:47:22;4.65;;;3.40;;
23080;SDS011;72373;50.562;8.498;2024-03-17T12:49:49;5.07;;;3.42;;
23080;SDS011;72373;50.562;8.498;2024-03-17T12:52:22;5.70;;;3.45;;
23080;SDS011;72373;50.562;8.498;2024-03-17T12:57:49;4.93;;;3.40;;
23080;SDS011;72373;50.562;8.498;2024-03-17T13:00:33;5.72;;;3.40;;
23080;SDS011;72373;50.562;8.498;2024-03-17T13:03:00;6.55;;;3.85;;
23080;SDS011;72373;50.562;8.498;2024-03-17T13:05:26;5.30;;;3.97;;
23080;SDS011;72373;50.562;8.498;2024-03-17T13:07:52;4.85;;;3.63;;
23080;SDS011;72373;50.562;8.498;2024-03-17T13:10:21;8.85;;;3.80;;
23080;SDS011;72373;50.562;8.498;2024-03-17T13:12:47;5.45;;;3.53;;
23080;SDS011;72373;50.562;8.498;2024-03-17T13:15:22;5.40;;;3.85;;
23080;SDS011;72373;50.562;8.498;2024-03-17T13:17:48;6.55;;;3.90;;
23080;SDS011;72373;50.562;8.498;2024-03-17T13:20:14;6.30;;;3.58;;
23080;SDS011;72373;50.562;8.498;2024-03-17T13:22:41;4.50;;;3.60;;
23080;SDS011;72373;50.562;8.498;2024-03-17T13:25:19;7.25;;;4.15;;
23080;SDS011;72373;50.562;8.498;2024-03-17T13:27:48;6.95;;;3.83;;
23080;SDS011;72373;50.562;8.498;2024-03-17T13:30:15;5.85;;;4.18;;
23080;SDS011;72373;50.562;8.498;2024-03-17T13:32:41;8.13;;;4.10;;
23080;SDS011;72373;50.562;8.498;2024-03-17T13:35:19;7.50;;;4.50;;
23080;SDS011;72373;50.562;8.498;2024-03-17T13:37:46;6.20;;;3.88;;
23080;SDS011;72373;50.562;8.498;2024-03-17T13:40:12;7.70;;;4.65;;
23080;SDS011;72373;50.562;8.498;2024-03-17T13:42:41;9.15;;;4.93;;
23080;SDS011;72373;50.562;8.498;2024-03-17T13:45:10;5.82;;;5.00;;
23080;SDS011;72373;50.562;8.498;2024-03-17T13:47:37;7.80;;;5.00;;
23080;SDS011;72373;50.562;8.498;2024-03-17T13:50:03;6.43;;;4.63;;
23080;SDS011;72373;50.562;8.498;2024-03-17T13:52:35;8.35;;;5.07;;
23080;SDS011;72373;50.562;8.498;2024-03-17T13:55:01;7.80;;;4.30;;
23080;SDS011;72373;50.562;8.498;2024-03-17T13:57:27;6.28;;;4.82;;
23080;SDS011;72373;50.562;8.498;2024-03-17T13:59:53;7.13;;;4.78;;
23080;SDS011;72373;50.562;8.498;2024-03-17T14:02:22;6.63;;;5.07;;
23080;SDS011;72373;50.562;8.498;2024-03-17T14:04:48;8.27;;;5.40;;
23080;SDS011;72373;50.562;8.498;2024-03-17T14:07:13;6.63;;;5.33;;
23080;SDS011;72373;50.562;8.498;2024-03-17T14:09:39;6.20;;;4.90;;
23080;SDS011;72373;50.562;8.498;2024-03-17T14:12:06;6.80;;;4.63;;
23080;SDS011;72373;50.562;8.498;2024-03-17T14:14:32;8.02;;;5.05;;
23080;SDS011;72373;50.562;8.498;2024-03-17T14:16:58;10.25;;;5.07;;
23080;SDS011;72373;50.562;8.498;2024-03-17T14:19:23;6.57;;;4.43;;
23080;SDS011;72373;50.562;8.498;2024-03-17T14:21:49;6.30;;;4.43;;
23080;SDS011;72373;50.562;8.498;2024-03-17T14:24:16;7.95;;;5.30;;
23080;SDS011;72373;50.562;8.498;2024-03-17T14:26:41;7.10;;;4.68;;
23080;SDS011;72373;50.562;8.498;2024-03-17T14:29:07;5.70;;;4.32;;
23080;SDS011;72373;50.562;8.498;2024-03-17T14:31:32;6.60;;;4.88;;
23080;SDS011;72373;50.562;8.498;2024-03-17T14:34:01;7.22;;;4.70;;
23080;SDS011;72373;50.562;8.498;2024-03-17T14:36:33;5.70;;;4.35;;
23080;SDS011;72373;50.562;8.498;2024-03-17T14:38:59;6.10;;;3.92;;
23080;SDS011;72373;50.562;8.498;2024-03-17T14:41:27;7.30;;;4.55;;
23080;SDS011;72373;50.562;8.498;2024-03-17T14:43:54;10.77;;;5.00;;
23080;SDS011;72373;50.562;8.498;2024-03-17T14:46:19;6.85;;;5.22;;
23080;SDS011;72373;50.562;8.498;2024-03-17T14:48:45;7.30;;;5.30;;
23080;SDS011;72373;50.562;8.498;2024-03-17T14:51:10;8.95;;;4.90;;
23080;SDS011;72373;50.562;8.498;2024-03-17T14:53:36;7.90;;;5.37;;
23080;SDS011;72373;50.562;8.498;2024-03-17T14:56:07;6.53;;;5.18;;
23080;SDS011;72373;50.562;8.498;2024-03-17T14:58:33;15.02;;;8.45;;
23080;SDS011;72373;50.562;8.498;2024-03-17T15:00:59;10.10;;;5.50;;
23080;SDS011;72373;50.562;8.498;2024-03-17T15:03:25;7.57;;;5.18;;
23080;SDS011;72373;50.562;8.498;2024-03-17T15:05:50;6.95;;;5.22;;
23080;SDS011;72373;50.562;8.498;2024-03-17T15:08:17;7.45;;;4.85;;
23080;SDS011;72373;50.562;8.498;2024-03-17T15:10:42;7.10;;;4.32;;
23080;SDS011;72373;50.562;8.498;2024-03-17T15:13:07;6.75;;;5.00;;
23080;SDS011;72373;50.562;8.498;2024-03-17T15:15:35;7.85;;;5.28;;
23080;SDS011;72373;50.562;8.498;2024-03-17T15:18:02;6.78;;;5.07;;
23080;SDS011;72373;50.562;8.498;2024-03-17T15:20:28;7.57;;;5.10;;
23080;SDS011;72373;50.562;8.498;2024-03-17T15:22:54;8.10;;;5.00;;
23080;SDS011;72373;50.562;8.498;2024-03-17T15:25:19;10.07;;;6.30;;